Kezdőlap
METAR-TAF:

METAR-TAF

Repülőterek :

Brescia-Ghedi, Olaszország

földrajzi szélesség: 45-25N, földrajzi hosszúság: 010-17E, magasság: 102 m

Jelenlegi meteorológiai megfigyelések

A jelentés 1 órával és 50 perccel ezelõtt készült, 21:55 UTC
Északkeleti szél 5 kt
Hőmérséklet 9°C
Páratartalom 81%
Légköri nyomás 1021 hPa
Látótávolság: 8000 m

METAR: LIPL 042155Z 04005KT 8000 NSC 09/06 Q1021 RMK SKC VIS MIN 8000 WIND THR31 05006KT WIND THR13 06005KT BLU

Idő: 01:45 (23:45 UTC)


TAF: hiányzik

Meteorológiai megfigyelések és előrejelzések több, mint 4000 repülőtéren (METAR és TAF jelentéseket).

A térképen piros és sárga pontok jelzik az elérhető meteorológiai állomásokat.

Mozgassa az egeret a pont fölött, hogy megjelenjen az állomás neve.

Azután kattintson az időjárási megfigyelések és előrejelzések megtekintéséhez.

A térkép megváltoztatása: kattintson a fekete keresztel jelölt zöld gombra ráközelítéshez, a vonallal jelölt zöld gombra távolításhoz, vagy a zöld nyilakra a szomszédos térképek eléréséhez.


METAR-TAF: